sensor_id;sensor_type;location;lat;lon;timestamp;pressure;altitude;pressure_sealevel;temperature;humidity
21236;BME280;10775;42.678;26.324;2023-03-14T00:02:16;99094.44;;;5.16;100.00
21236;BME280;10775;42.678;26.324;2023-03-14T00:04:41;99085.72;;;5.05;100.00
21236;BME280;10775;42.678;26.324;2023-03-14T00:07:07;99083.16;;;5.11;100.00
21236;BME280;10775;42.678;26.324;2023-03-14T00:09:32;99085.75;;;5.08;100.00
21236;BME280;10775;42.678;26.324;2023-03-14T00:11:58;99093.03;;;4.56;91.72
21236;BME280;10775;42.678;26.324;2023-03-14T00:14:23;99087.38;;;4.16;100.00
21236;BME280;10775;42.678;26.324;2023-03-14T00:16:49;99089.00;;;4.08;94.81
21236;BME280;10775;42.678;26.324;2023-03-14T00:19:14;99086.47;;;4.14;100.00
21236;BME280;10775;42.678;26.324;2023-03-14T00:21:40;99091.16;;;4.44;100.00
21236;BME280;10775;42.678;26.324;2023-03-14T00:24:06;99085.88;;;4.33;96.34
21236;BME280;10775;42.678;26.324;2023-03-14T00:26:32;99085.00;;;4.33;99.94
21236;BME280;10775;42.678;26.324;2023-03-14T00:28:57;99086.09;;;4.53;100.00
21236;BME280;10775;42.678;26.324;2023-03-14T00:31:23;99095.53;;;4.50;100.00
21236;BME280;10775;42.678;26.324;2023-03-14T00:33:48;99084.88;;;4.22;100.00
21236;BME280;10775;42.678;26.324;2023-03-14T00:36:17;99085.22;;;4.53;100.00
21236;BME280;10775;42.678;26.324;2023-03-14T00:38:44;99078.22;;;4.43;99.26
21236;BME280;10775;42.678;26.324;2023-03-14T00:41:12;99083.38;;;4.41;100.00
21236;BME280;10775;42.678;26.324;2023-03-14T00:43:38;99080.81;;;4.43;100.00
21236;BME280;10775;42.678;26.324;2023-03-14T00:46:04;99079.03;;;4.40;100.00
21236;BME280;10775;42.678;26.324;2023-03-14T00:48:30;99088.59;;;4.47;100.00
21236;BME280;10775;42.678;26.324;2023-03-14T00:50:55;99081.63;;;4.42;100.00
21236;BME280;10775;42.678;26.324;2023-03-14T00:53:21;99080.13;;;4.62;100.00
21236;BME280;10775;42.678;26.324;2023-03-14T00:55:47;99076.81;;;4.75;100.00
21236;BME280;10775;42.678;26.324;2023-03-14T00:58:15;99075.97;;;4.78;100.00
21236;BME280;10775;42.678;26.324;2023-03-14T01:00:41;99069.91;;;4.76;100.00
21236;BME280;10775;42.678;26.324;2023-03-14T01:03:07;99070.78;;;4.76;100.00
21236;BME280;10775;42.678;26.324;2023-03-14T01:05:33;99074.34;;;4.86;100.00
21236;BME280;10775;42.678;26.324;2023-03-14T01:07:59;99066.59;;;4.89;100.00
21236;BME280;10775;42.678;26.324;2023-03-14T01:10:25;99062.09;;;4.73;100.00
21236;BME280;10775;42.678;26.324;2023-03-14T01:12:50;99062.00;;;4.62;99.61
21236;BME280;10775;42.678;26.324;2023-03-14T01:15:16;99056.75;;;4.56;100.00
21236;BME280;10775;42.678;26.324;2023-03-14T01:17:41;99055.09;;;4.61;100.00
21236;BME280;10775;42.678;26.324;2023-03-14T01:20:09;99048.97;;;4.53;100.00
21236;BME280;10775;42.678;26.324;2023-03-14T01:22:36;99048.06;;;4.48;100.00
21236;BME280;10775;42.678;26.324;2023-03-14T01:25:04;99038.47;;;4.39;100.00
21236;BME280;10775;42.678;26.324;2023-03-14T01:27:29;99041.16;;;4.50;100.00
21236;BME280;10775;42.678;26.324;2023-03-14T01:29:55;99036.84;;;4.52;100.00
21236;BME280;10775;42.678;26.324;2023-03-14T01:32:20;99038.69;;;4.61;100.00
21236;BME280;10775;42.678;26.324;2023-03-14T01:34:46;99029.19;;;4.61;100.00
21236;BME280;10775;42.678;26.324;2023-03-14T01:37:11;99039.59;;;4.66;100.00
21236;BME280;10775;42.678;26.324;2023-03-14T01:39:37;99034.94;;;4.32;97.55
21236;BME280;10775;42.678;26.324;2023-03-14T01:42:03;99030.78;;;4.47;100.00
21236;BME280;10775;42.678;26.324;2023-03-14T01:44:49;99036.03;;;4.53;100.00
21236;BME280;10775;42.678;26.324;2023-03-14T01:47:15;99030.63;;;4.34;100.00
21236;BME280;10775;42.678;26.324;2023-03-14T01:49:41;99035.66;;;4.19;100.00
21236;BME280;10775;42.678;26.324;2023-03-14T01:52:16;99034.03;;;4.27;100.00
21236;BME280;10775;42.678;26.324;2023-03-14T01:54:53;99023.72;;;4.30;100.00
21236;BME280;10775;42.678;26.324;2023-03-14T01:57:25;99019.34;;;4.26;100.00
21236;BME280;10775;42.678;26.324;2023-03-14T01:59:59;99026.22;;;4.24;100.00
21236;BME280;10775;42.678;26.324;2023-03-14T02:02:27;99021.97;;;4.31;100.00
21236;BME280;10775;42.678;26.324;2023-03-14T02:04:54;99015.69;;;4.07;100.00
21236;BME280;10775;42.678;26.324;2023-03-14T02:10:14;99017.50;;;4.16;100.00
21236;BME280;10775;42.678;26.324;2023-03-14T02:12:40;99021.09;;;4.29;100.00
21236;BME280;10775;42.678;26.324;2023-03-14T02:15:06;99015.09;;;4.34;100.00
21236;BME280;10775;42.678;26.324;2023-03-14T02:17:32;99015.94;;;4.30;100.00
21236;BME280;10775;42.678;26.324;2023-03-14T02:20:13;99018.44;;;4.24;100.00
21236;BME280;10775;42.678;26.324;2023-03-14T02:22:45;99009.34;;;3.82;98.95
21236;BME280;10775;42.678;26.324;2023-03-14T02:28:10;99022.66;;;4.13;100.00
21236;BME280;10775;42.678;26.324;2023-03-14T02:30:36;99020.19;;;4.22;100.00
21236;BME280;10775;42.678;26.324;2023-03-14T02:33:05;99021.94;;;4.28;100.00
21236;BME280;10775;42.678;26.324;2023-03-14T02:35:35;99014.16;;;4.25;100.00
21236;BME280;10775;42.678;26.324;2023-03-14T02:40:46;99015.22;;;4.45;100.00
21236;BME280;10775;42.678;26.324;2023-03-14T02:43:11;99016.00;;;4.40;100.00
21236;BME280;10775;42.678;26.324;2023-03-14T02:45:45;99010.81;;;4.36;100.00
21236;BME280;10775;42.678;26.324;2023-03-14T02:48:14;99010.84;;;4.40;100.00
21236;BME280;10775;42.678;26.324;2023-03-14T02:50:40;99007.34;;;4.34;100.00
21236;BME280;10775;42.678;26.324;2023-03-14T02:53:06;99004.63;;;4.21;100.00
21236;BME280;10775;42.678;26.324;2023-03-14T02:55:32;98996.00;;;4.20;100.00
21236;BME280;10775;42.678;26.324;2023-03-14T02:57:57;99002.84;;;4.15;100.00
21236;BME280;10775;42.678;26.324;2023-03-14T03:00:23;99011.41;;;4.11;100.00
21236;BME280;10775;42.678;26.324;2023-03-14T03:02:48;98995.72;;;3.94;100.00
21236;BME280;10775;42.678;26.324;2023-03-14T03:05:14;98996.38;;;3.79;98.75
21236;BME280;10775;42.678;26.324;2023-03-14T03:07:39;98993.72;;;3.73;100.00
21236;BME280;10775;42.678;26.324;2023-03-14T03:10:05;98999.06;;;3.88;100.00
21236;BME280;10775;42.678;26.324;2023-03-14T03:12:31;98994.91;;;4.00;100.00
21236;BME280;10775;42.678;26.324;2023-03-14T03:14:56;98985.47;;;4.06;100.00
21236;BME280;10775;42.678;26.324;2023-03-14T03:17:22;98990.78;;;4.17;100.00
21236;BME280;10775;42.678;26.324;2023-03-14T03:19:48;98992.63;;;4.29;100.00
21236;BME280;10775;42.678;26.324;2023-03-14T03:22:13;98986.56;;;4.27;100.00
21236;BME280;10775;42.678;26.324;2023-03-14T03:24:38;98993.47;;;4.25;100.00
21236;BME280;10775;42.678;26.324;2023-03-14T03:27:04;98983.88;;;4.18;100.00
21236;BME280;10775;42.678;26.324;2023-03-14T03:29:29;98984.59;;;4.06;100.00
21236;BME280;10775;42.678;26.324;2023-03-14T03:31:55;98983.69;;;4.01;100.00
21236;BME280;10775;42.678;26.324;2023-03-14T03:34:21;98986.16;;;3.90;100.00
21236;BME280;10775;42.678;26.324;2023-03-14T03:36:46;98983.66;;;3.98;100.00
21236;BME280;10775;42.678;26.324;2023-03-14T03:39:12;98988.94;;;4.07;100.00
21236;BME280;10775;42.678;26.324;2023-03-14T03:41:37;98992.31;;;4.00;100.00
21236;BME280;10775;42.678;26.324;2023-03-14T03:44:02;98989.66;;;3.95;100.00
21236;BME280;10775;42.678;26.324;2023-03-14T03:46:28;98985.38;;;3.97;100.00
21236;BME280;10775;42.678;26.324;2023-03-14T03:49:02;98986.22;;;3.96;100.00
21236;BME280;10775;42.678;26.324;2023-03-14T03:51:28;98990.69;;;4.08;100.00
21236;BME280;10775;42.678;26.324;2023-03-14T03:53:53;98982.09;;;4.12;100.00
21236;BME280;10775;42.678;26.324;2023-03-14T03:56:19;98983.59;;;3.91;95.33
21236;BME280;10775;42.678;26.324;2023-03-14T03:58:44;98983.44;;;3.81;100.00
21236;BME280;10775;42.678;26.324;2023-03-14T04:01:10;98976.69;;;3.90;100.00
21236;BME280;10775;42.678;26.324;2023-03-14T04:03:38;98983.78;;;4.07;100.00
21236;BME280;10775;42.678;26.324;2023-03-14T04:06:10;98981.19;;;4.08;100.00
21236;BME280;10775;42.678;26.324;2023-03-14T04:08:36;98989.81;;;4.07;100.00
21236;BME280;10775;42.678;26.324;2023-03-14T04:11:03;98983.63;;;3.96;100.00
21236;BME280;10775;42.678;26.324;2023-03-14T04:13:28;98980.13;;;3.89;100.00
21236;BME280;10775;42.678;26.324;2023-03-14T04:15:54;98975.47;;;3.62;98.08
21236;BME280;10775;42.678;26.324;2023-03-14T04:18:20;98972.00;;;3.60;100.00
21236;BME280;10775;42.678;26.324;2023-03-14T04:20:51;98973.09;;;3.76;100.00
21236;BME280;10775;42.678;26.324;2023-03-14T04:23:17;98978.63;;;3.38;97.61
21236;BME280;10775;42.678;26.324;2023-03-14T04:25:42;98980.28;;;3.35;91.23
21236;BME280;10775;42.678;26.324;2023-03-14T04:28:07;98975.31;;;3.48;98.60
21236;BME280;10775;42.678;26.324;2023-03-14T04:30:33;98982.66;;;3.18;91.44
21236;BME280;10775;42.678;26.324;2023-03-14T04:32:59;98972.50;;;3.30;97.47
21236;BME280;10775;42.678;26.324;2023-03-14T04:35:24;98968.25;;;3.35;100.00
21236;BME280;10775;42.678;26.324;2023-03-14T04:37:50;98972.94;;;3.03;89.86
21236;BME280;10775;42.678;26.324;2023-03-14T04:40:17;98968.16;;;3.29;100.00
21236;BME280;10775;42.678;26.324;2023-03-14T04:42:43;98976.16;;;3.47;100.00
21236;BME280;10775;42.678;26.324;2023-03-14T04:45:09;98969.25;;;3.46;100.00
21236;BME280;10775;42.678;26.324;2023-03-14T04:47:34;98970.19;;;3.52;100.00
21236;BME280;10775;42.678;26.324;2023-03-14T04:50:00;98971.09;;;3.57;100.00
21236;BME280;10775;42.678;26.324;2023-03-14T04:52:26;98968.59;;;3.63;100.00
21236;BME280;10775;42.678;26.324;2023-03-14T04:54:52;98962.66;;;3.68;100.00
21236;BME280;10775;42.678;26.324;2023-03-14T04:57:17;98962.69;;;3.75;100.00
21236;BME280;10775;42.678;26.324;2023-03-14T04:59:43;98975.59;;;3.72;100.00
21236;BME280;10775;42.678;26.324;2023-03-14T05:02:08;98965.22;;;3.68;99.55
21236;BME280;10775;42.678;26.324;2023-03-14T05:04:34;98964.00;;;3.42;98.85
21236;BME280;10775;42.678;26.324;2023-03-14T05:07:00;98965.69;;;3.38;93.49
21236;BME280;10775;42.678;26.324;2023-03-14T05:09:25;98963.22;;;3.47;100.00
21236;BME280;10775;42.678;26.324;2023-03-14T05:11:51;98955.59;;;3.57;100.00
21236;BME280;10775;42.678;26.324;2023-03-14T05:14:16;98958.47;;;3.83;100.00
21236;BME280;10775;42.678;26.324;2023-03-14T05:16:42;98961.28;;;4.03;100.00
21236;BME280;10775;42.678;26.324;2023-03-14T05:19:07;98970.88;;;4.13;100.00
21236;BME280;10775;42.678;26.324;2023-03-14T05:21:33;98958.00;;;4.19;100.00
21236;BME280;10775;42.678;26.324;2023-03-14T05:23:58;98967.50;;;4.19;98.78
21236;BME280;10775;42.678;26.324;2023-03-14T05:26:24;98971.84;;;4.23;99.09
21236;BME280;10775;42.678;26.324;2023-03-14T05:28:49;98964.22;;;4.36;99.73
21236;BME280;10775;42.678;26.324;2023-03-14T05:31:15;98970.31;;;4.45;97.33
21236;BME280;10775;42.678;26.324;2023-03-14T05:33:40;98965.13;;;4.42;93.83
21236;BME280;10775;42.678;26.324;2023-03-14T05:36:06;98963.31;;;4.30;96.90
21236;BME280;10775;42.678;26.324;2023-03-14T05:38:32;98965.09;;;4.35;96.61
21236;BME280;10775;42.678;26.324;2023-03-14T05:40:57;98971.13;;;4.39;96.02
21236;BME280;10775;42.678;26.324;2023-03-14T05:43:23;98966.81;;;4.36;96.88
21236;BME280;10775;42.678;26.324;2023-03-14T05:45:48;98966.81;;;4.40;94.87
21236;BME280;10775;42.678;26.324;2023-03-14T05:48:14;98964.31;;;4.47;96.10
21236;BME280;10775;42.678;26.324;2023-03-14T05:50:39;98954.03;;;4.53;95.83
21236;BME280;10775;42.678;26.324;2023-03-14T05:53:05;98963.59;;;4.65;95.17
21236;BME280;10775;42.678;26.324;2023-03-14T05:55:30;98966.31;;;4.76;93.27
21236;BME280;10775;42.678;26.324;2023-03-14T05:57:56;98958.41;;;4.65;91.06
21236;BME280;10775;42.678;26.324;2023-03-14T06:00:22;98960.19;;;4.69;93.97
21236;BME280;10775;42.678;26.324;2023-03-14T06:02:47;98956.72;;;4.70;91.87
21236;BME280;10775;42.678;26.324;2023-03-14T06:05:13;98958.59;;;4.87;92.93
21236;BME280;10775;42.678;26.324;2023-03-14T06:07:38;98953.41;;;4.88;91.90
21236;BME280;10775;42.678;26.324;2023-03-14T06:10:05;98958.59;;;4.88;91.93
21236;BME280;10775;42.678;26.324;2023-03-14T06:12:31;98955.22;;;4.94;91.21
21236;BME280;10775;42.678;26.324;2023-03-14T06:14:56;98962.13;;;4.95;89.63
21236;BME280;10775;42.678;26.324;2023-03-14T06:17:22;98962.19;;;5.04;90.33
21236;BME280;10775;42.678;26.324;2023-03-14T06:19:47;98964.81;;;5.12;90.37
21236;BME280;10775;42.678;26.324;2023-03-14T06:22:13;98961.41;;;5.17;90.19
21236;BME280;10775;42.678;26.324;2023-03-14T06:24:38;98963.16;;;5.23;88.08
21236;BME280;10775;42.678;26.324;2023-03-14T06:27:04;98958.78;;;5.19;89.18
21236;BME280;10775;42.678;26.324;2023-03-14T06:29:29;98953.63;;;5.17;88.18
21236;BME280;10775;42.678;26.324;2023-03-14T06:31:55;98953.66;;;5.23;88.59
21236;BME280;10775;42.678;26.324;2023-03-14T06:34:21;98964.91;;;5.29;88.31
21236;BME280;10775;42.678;26.324;2023-03-14T06:36:46;98957.13;;;5.22;87.31
21236;BME280;10775;42.678;26.324;2023-03-14T06:39:12;98969.38;;;5.50;87.44
21236;BME280;10775;42.678;26.324;2023-03-14T06:41:37;98968.38;;;5.31;86.30
21236;BME280;10775;42.678;26.324;2023-03-14T06:44:03;98971.06;;;5.43;85.26
21236;BME280;10775;42.678;26.324;2023-03-14T06:46:29;98969.25;;;5.27;85.96
21236;BME280;10775;42.678;26.324;2023-03-14T06:48:55;98964.00;;;5.17;80.39
21236;BME280;10775;42.678;26.324;2023-03-14T06:51:20;98965.00;;;5.42;88.02
21236;BME280;10775;42.678;26.324;2023-03-14T06:53:46;98965.13;;;5.75;90.14
21236;BME280;10775;42.678;26.324;2023-03-14T06:56:11;98967.91;;;6.18;88.55
21236;BME280;10775;42.678;26.324;2023-03-14T06:58:37;98957.56;;;6.35;88.46
21236;BME280;10775;42.678;26.324;2023-03-14T07:01:02;98961.88;;;6.37;88.99
21236;BME280;10775;42.678;26.324;2023-03-14T07:03:28;98959.28;;;6.39;90.47
21236;BME280;10775;42.678;26.324;2023-03-14T07:05:54;98964.47;;;6.25;90.73
21236;BME280;10775;42.678;26.324;2023-03-14T07:08:20;98963.63;;;6.37;91.07
21236;BME280;10775;42.678;26.324;2023-03-14T07:10:45;98957.59;;;6.73;94.61
21236;BME280;10775;42.678;26.324;2023-03-14T07:13:11;98948.91;;;6.99;91.42
21236;BME280;10775;42.678;26.324;2023-03-14T07:15:36;98948.88;;;7.08;91.98
21236;BME280;10775;42.678;26.324;2023-03-14T07:18:01;98952.84;;;8.07;90.12
21236;BME280;10775;42.678;26.324;2023-03-14T07:20:27;98946.91;;;9.87;82.27
21236;BME280;10775;42.678;26.324;2023-03-14T07:22:53;98939.59;;;11.22;74.55
21236;BME280;10775;42.678;26.324;2023-03-14T07:25:19;98936.94;;;12.11;72.23
21236;BME280;10775;42.678;26.324;2023-03-14T07:27:45;98934.56;;;11.57;64.60
21236;BME280;10775;42.678;26.324;2023-03-14T07:30:13;98936.50;;;11.92;70.73
21236;BME280;10775;42.678;26.324;2023-03-14T07:32:39;98932.97;;;12.71;65.79
21236;BME280;10775;42.678;26.324;2023-03-14T07:35:05;98927.91;;;12.97;66.12
21236;BME280;10775;42.678;26.324;2023-03-14T07:37:30;98926.03;;;12.31;61.26
21236;BME280;10775;42.678;26.324;2023-03-14T07:39:56;98929.25;;;12.42;66.16
21236;BME280;10775;42.678;26.324;2023-03-14T07:42:21;98931.41;;;12.62;67.04
21236;BME280;10775;42.678;26.324;2023-03-14T07:44:47;98927.44;;;13.48;60.61
21236;BME280;10775;42.678;26.324;2023-03-14T07:47:12;98932.97;;;13.70;62.99
21236;BME280;10775;42.678;26.324;2023-03-14T07:49:38;98925.19;;;12.66;53.64
21236;BME280;10775;42.678;26.324;2023-03-14T07:52:03;98920.41;;;12.48;65.03
21236;BME280;10775;42.678;26.324;2023-03-14T07:54:29;98921.50;;;13.08;63.85
21236;BME280;10775;42.678;26.324;2023-03-14T07:56:54;98910.56;;;13.57;63.04
21236;BME280;10775;42.678;26.324;2023-03-14T07:59:20;98918.28;;;14.21;62.56
21236;BME280;10775;42.678;26.324;2023-03-14T08:01:46;98913.44;;;14.65;61.23
21236;BME280;10775;42.678;26.324;2023-03-14T08:04:11;98916.47;;;14.53;53.28
21236;BME280;10775;42.678;26.324;2023-03-14T08:06:36;98905.94;;;14.51;61.15
21236;BME280;10775;42.678;26.324;2023-03-14T08:09:03;98912.72;;;14.87;61.56
21236;BME280;10775;42.678;26.324;2023-03-14T08:11:29;98905.81;;;14.83;56.16
21236;BME280;10775;42.678;26.324;2023-03-14T08:13:54;98891.94;;;14.24;59.48
21236;BME280;10775;42.678;26.324;2023-03-14T08:16:21;98907.19;;;13.52;59.05
21236;BME280;10775;42.678;26.324;2023-03-14T08:18:47;98899.16;;;13.88;61.98
21236;BME280;10775;42.678;26.324;2023-03-14T08:21:12;98897.00;;;14.29;58.31
21236;BME280;10775;42.678;26.324;2023-03-14T08:23:38;98891.19;;;13.61;58.59
21236;BME280;10775;42.678;26.324;2023-03-14T08:26:03;98881.88;;;14.37;58.69
21236;BME280;10775;42.678;26.324;2023-03-14T08:28:29;98884.50;;;15.15;60.52
21236;BME280;10775;42.678;26.324;2023-03-14T08:30:59;98879.94;;;15.20;54.15
21236;BME280;10775;42.678;26.324;2023-03-14T08:33:27;98871.34;;;14.90;56.73
21236;BME280;10775;42.678;26.324;2023-03-14T08:35:54;98863.28;;;15.20;58.42
21236;BME280;10775;42.678;26.324;2023-03-14T08:38:19;98861.78;;;15.13;55.40
21236;BME280;10775;42.678;26.324;2023-03-14T08:40:45;98860.28;;;15.31;54.74
21236;BME280;10775;42.678;26.324;2023-03-14T08:43:10;98856.31;;;15.19;58.28
21236;BME280;10775;42.678;26.324;2023-03-14T08:45:36;98858.88;;;15.20;55.09
21236;BME280;10775;42.678;26.324;2023-03-14T08:48:02;98852.22;;;15.10;57.34
21236;BME280;10775;42.678;26.324;2023-03-14T08:50:28;98859.47;;;15.29;58.46
21236;BME280;10775;42.678;26.324;2023-03-14T08:52:53;98847.22;;;15.28;58.85
21236;BME280;10775;42.678;26.324;2023-03-14T08:55:19;98846.53;;;15.22;57.71
21236;BME280;10775;42.678;26.324;2023-03-14T08:57:45;98846.22;;;14.82;54.14
21236;BME280;10775;42.678;26.324;2023-03-14T09:00:11;98843.50;;;14.58;58.77
21236;BME280;10775;42.678;26.324;2023-03-14T09:02:41;98836.03;;;14.18;59.17
21236;BME280;10775;42.678;26.324;2023-03-14T09:05:07;98830.22;;;13.50;60.16
21236;BME280;10775;42.678;26.324;2023-03-14T09:07:33;98826.69;;;13.81;48.55
21236;BME280;10775;42.678;26.324;2023-03-14T09:09:58;98824.75;;;14.67;62.15
21236;BME280;10775;42.678;26.324;2023-03-14T09:12:24;98830.16;;;15.38;56.02
21236;BME280;10775;42.678;26.324;2023-03-14T09:14:49;98828.91;;;15.25;60.03
21236;BME280;10775;42.678;26.324;2023-03-14T09:17:15;98823.06;;;15.63;56.10
21236;BME280;10775;42.678;26.324;2023-03-14T09:19:40;98819.50;;;15.41;58.65
21236;BME280;10775;42.678;26.324;2023-03-14T09:22:05;98813.13;;;15.47;53.01
21236;BME280;10775;42.678;26.324;2023-03-14T09:24:31;98813.03;;;15.50;58.77
21236;BME280;10775;42.678;26.324;2023-03-14T09:26:56;98801.16;;;15.61;55.90
21236;BME280;10775;42.678;26.324;2023-03-14T09:29:22;98795.69;;;15.20;54.99
21236;BME280;10775;42.678;26.324;2023-03-14T09:31:48;98792.66;;;14.83;43.29
21236;BME280;10775;42.678;26.324;2023-03-14T09:34:13;98789.88;;;14.35;53.97
21236;BME280;10775;42.678;26.324;2023-03-14T09:36:39;98787.34;;;14.84;53.57
21236;BME280;10775;42.678;26.324;2023-03-14T09:39:05;98783.16;;;15.04;56.72
21236;BME280;10775;42.678;26.324;2023-03-14T09:41:35;98782.31;;;14.78;56.54
21236;BME280;10775;42.678;26.324;2023-03-14T09:44:10;98775.88;;;15.10;48.51
21236;BME280;10775;42.678;26.324;2023-03-14T09:46:39;98778.31;;;15.38;47.95
21236;BME280;10775;42.678;26.324;2023-03-14T09:51:56;98769.00;;;15.30;48.70
21236;BME280;10775;42.678;26.324;2023-03-14T09:56:57;98756.16;;;15.44;51.13
21236;BME280;10775;42.678;26.324;2023-03-14T09:59:23;98758.94;;;15.17;46.51
21236;BME280;10775;42.678;26.324;2023-03-14T10:01:49;98750.34;;;15.12;51.38
21236;BME280;10775;42.678;26.324;2023-03-14T10:04:17;98748.06;;;15.49;54.66
21236;BME280;10775;42.678;26.324;2023-03-14T10:06:46;98739.09;;;15.31;52.20
21236;BME280;10775;42.678;26.324;2023-03-14T10:09:20;98739.16;;;14.05;48.99
21236;BME280;10775;42.678;26.324;2023-03-14T10:11:52;98742.06;;;13.41;44.43
21236;BME280;10775;42.678;26.324;2023-03-14T10:14:29;98742.63;;;14.32;54.91
21236;BME280;10775;42.678;26.324;2023-03-14T10:17:11;98733.09;;;14.80;55.88
21236;BME280;10775;42.678;26.324;2023-03-14T10:19:50;98717.72;;;15.16;55.18
21236;BME280;10775;42.678;26.324;2023-03-14T10:22:16;98716.16;;;15.11;48.00
21236;BME280;10775;42.678;26.324;2023-03-14T10:24:49;98711.00;;;15.08;44.17
21236;BME280;10775;42.678;26.324;2023-03-14T10:27:27;98709.59;;;14.99;50.86
21236;BME280;10775;42.678;26.324;2023-03-14T10:29:56;98703.88;;;15.11;48.14
21236;BME280;10775;42.678;26.324;2023-03-14T10:32:28;98706.59;;;15.08;48.42
21236;BME280;10775;42.678;26.324;2023-03-14T10:37:52;98698.97;;;14.52;45.20
21236;BME280;10775;42.678;26.324;2023-03-14T10:40:27;98692.75;;;14.56;51.85
21236;BME280;10775;42.678;26.324;2023-03-14T10:42:53;98680.19;;;15.11;50.97
21236;BME280;10775;42.678;26.324;2023-03-14T10:48:23;98680.56;;;15.00;47.87
21236;BME280;10775;42.678;26.324;2023-03-14T10:53:39;98675.03;;;15.30;50.26
21236;BME280;10775;42.678;26.324;2023-03-14T10:56:05;98661.94;;;15.51;51.53
21236;BME280;10775;42.678;26.324;2023-03-14T10:58:35;98654.53;;;15.60;48.57
21236;BME280;10775;42.678;26.324;2023-03-14T11:03:51;98648.75;;;14.60;49.25
21236;BME280;10775;42.678;26.324;2023-03-14T11:06:23;98645.81;;;14.19;37.24
21236;BME280;10775;42.678;26.324;2023-03-14T11:11:58;98628.84;;;14.99;45.76
21236;BME280;10775;42.678;26.324;2023-03-14T11:14:41;98621.19;;;15.15;50.03
21236;BME280;10775;42.678;26.324;2023-03-14T11:17:38;98619.34;;;14.95;38.28
21236;BME280;10775;42.678;26.324;2023-03-14T11:26:04;98591.56;;;15.32;47.99
21236;BME280;10775;42.678;26.324;2023-03-14T11:28:39;98593.44;;;14.85;37.83
21236;BME280;10775;42.678;26.324;2023-03-14T11:36:24;98569.53;;;15.77;45.86
21236;BME280;10775;42.678;26.324;2023-03-14T11:38:55;98561.19;;;15.23;37.50
21236;BME280;10775;42.678;26.324;2023-03-14T11:41:42;98555.09;;;15.43;47.49
21236;BME280;10775;42.678;26.324;2023-03-14T11:44:36;98546.09;;;15.07;45.87
21236;BME280;10775;42.678;26.324;2023-03-14T11:47:12;98542.25;;;15.36;42.79
21236;BME280;10775;42.678;26.324;2023-03-14T11:50:21;98536.03;;;14.94;47.88
21236;BME280;10775;42.678;26.324;2023-03-14T11:53:03;98539.53;;;15.17;49.91
21236;BME280;10775;42.678;26.324;2023-03-14T11:55:35;98539.00;;;14.40;38.15
21236;BME280;10775;42.678;26.324;2023-03-14T11:58:09;98530.16;;;14.88;48.39
21236;BME280;10775;42.678;26.324;2023-03-14T12:00:38;98522.22;;;15.11;37.21
21236;BME280;10775;42.678;26.324;2023-03-14T12:08:39;98500.53;;;15.68;39.98
21236;BME280;10775;42.678;26.324;2023-03-14T12:11:36;98485.25;;;15.55;40.34
21236;BME280;10775;42.678;26.324;2023-03-14T12:14:17;98484.00;;;15.01;39.22
21236;BME280;10775;42.678;26.324;2023-03-14T12:16:46;98478.22;;;15.54;50.46
21236;BME280;10775;42.678;26.324;2023-03-14T12:21:58;98470.00;;;15.21;46.26
21236;BME280;10775;42.678;26.324;2023-03-14T12:24:36;98470.22;;;14.94;42.98
21236;BME280;10775;42.678;26.324;2023-03-14T12:27:04;98457.06;;;15.37;48.94
21236;BME280;10775;42.678;26.324;2023-03-14T12:29:31;98462.72;;;15.48;45.88
21236;BME280;10775;42.678;26.324;2023-03-14T12:32:07;98457.06;;;15.78;51.01
21236;BME280;10775;42.678;26.324;2023-03-14T12:34:34;98452.88;;;16.12;50.40
21236;BME280;10775;42.678;26.324;2023-03-14T12:37:16;98447.63;;;16.12;51.26
21236;BME280;10775;42.678;26.324;2023-03-14T12:40:17;98455.19;;;15.18;38.50
21236;BME280;10775;42.678;26.324;2023-03-14T12:43:00;98445.25;;;14.83;42.40
21236;BME280;10775;42.678;26.324;2023-03-14T12:45:29;98434.72;;;15.25;47.75
21236;BME280;10775;42.678;26.324;2023-03-14T12:48:03;98440.25;;;14.98;51.52
21236;BME280;10775;42.678;26.324;2023-03-14T12:51:15;98430.41;;;15.63;53.87
21236;BME280;10775;42.678;26.324;2023-03-14T12:59:46;98415.25;;;15.69;52.17
21236;BME280;10775;42.678;26.324;2023-03-14T13:02:25;98406.84;;;16.00;48.28
21236;BME280;10775;42.678;26.324;2023-03-14T13:05:24;98405.38;;;16.13;56.00
21236;BME280;10775;42.678;26.324;2023-03-14T13:08:03;98402.56;;;16.16;56.51
21236;BME280;10775;42.678;26.324;2023-03-14T13:10:39;98395.03;;;15.30;41.16
21236;BME280;10775;42.678;26.324;2023-03-14T13:13:22;98397.75;;;14.65;52.54
21236;BME280;10775;42.678;26.324;2023-03-14T13:15:58;98387.78;;;15.14;50.75
21236;BME280;10775;42.678;26.324;2023-03-14T13:18:38;98380.06;;;15.30;54.45
21236;BME280;10775;42.678;26.324;2023-03-14T13:23:36;98376.75;;;15.46;59.62
21236;BME280;10775;42.678;26.324;2023-03-14T13:26:02;98372.94;;;15.73;54.48
21236;BME280;10775;42.678;26.324;2023-03-14T13:28:30;98367.09;;;15.85;56.48
21236;BME280;10775;42.678;26.324;2023-03-14T13:31:04;98365.09;;;15.91;50.25
21236;BME280;10775;42.678;26.324;2023-03-14T13:33:42;98363.91;;;15.58;39.27
21236;BME280;10775;42.678;26.324;2023-03-14T13:36:11;98351.22;;;15.66;59.64
21236;BME280;10775;42.678;26.324;2023-03-14T13:38:40;98348.63;;;15.27;44.00
21236;BME280;10775;42.678;26.324;2023-03-14T13:41:10;98348.19;;;14.32;51.75
21236;BME280;10775;42.678;26.324;2023-03-14T13:43:40;98343.03;;;14.73;49.02
21236;BME280;10775;42.678;26.324;2023-03-14T13:46:12;98342.25;;;14.92;41.79
21236;BME280;10775;42.678;26.324;2023-03-14T13:48:53;98336.34;;;15.26;48.61
21236;BME280;10775;42.678;26.324;2023-03-14T13:51:20;98328.50;;;15.45;59.77
21236;BME280;10775;42.678;26.324;2023-03-14T13:53:52;98331.09;;;15.65;53.37
21236;BME280;10775;42.678;26.324;2023-03-14T13:56:23;98325.56;;;15.72;47.29